Time;durP1;ratioP1;P1;durP2;ratioP2;P2;SDS_P1;SDS_P2;PMS_P1;PMS_P2;Temp;Humidity;BMP_temperature;BMP_pressure;BME280_temperature;BME280_humidity;BME280_pressure;Samples;Min_cycle;Max_cycle;Signal;HPM_P1;HPM_P2
2021/05/05 00:02:25;;;;;;;6.53;1.00;;;;;;;-141.50;100.00;63355.56;5069291;28;20059;-77
2021/05/05 00:04:51;;;;;;;4.13;1.10;;;;;;;-141.50;100.00;63355.56;5070461;28;20094;-78
2021/05/05 00:07:17;;;;;;;5.85;1.25;;;;;;;-141.50;100.00;63355.56;5069218;28;20044;-78
2021/05/05 00:09:46;;;;;;;6.28;1.20;;;;;;;-141.50;100.00;63355.56;5070738;28;20053;-77
2021/05/05 00:12:14;;;;;;;3.75;0.90;;;;;;;-141.50;100.00;63355.56;5069254;28;20048;-77
2021/05/05 00:14:40;;;;;;;4.82;1.00;;;;;;;-141.50;100.00;63355.56;5053088;28;20055;-78
2021/05/05 00:17:06;;;;;;;4.55;1.30;;;;;;;-141.50;100.00;63355.56;5069911;28;20040;-77
2021/05/05 00:19:35;;;;;;;3.90;1.20;;;;;;;-141.50;100.00;63355.56;5069804;28;20102;-78
2021/05/05 00:22:01;;;;;;;7.28;1.30;;;;;;;-141.50;100.00;63355.56;5052346;28;20064;-77
2021/05/05 00:24:27;;;;;;;6.75;1.08;;;;;;;-141.50;100.00;63355.56;5068291;28;20098;-77
2021/05/05 00:26:53;;;;;;;7.13;1.30;;;;;;;-141.50;100.00;63355.56;5036103;28;20052;-78
2021/05/05 00:29:19;;;;;;;6.82;1.30;;;;;;;-141.50;100.00;63355.56;5035755;28;20044;-77
2021/05/05 00:31:47;;;;;;;4.40;1.25;;;;;;;-141.50;100.00;63355.56;5052994;28;20412;-78
2021/05/05 00:34:14;;;;;;;5.70;1.10;;;;;;;-141.50;100.00;63355.56;5052488;28;20051;-77
2021/05/05 00:36:40;;;;;;;8.55;1.60;;;;;;;-141.50;100.00;63355.56;5053107;28;20492;-79
2021/05/05 00:39:06;;;;;;;6.72;1.40;;;;;;;-141.50;100.00;63355.56;5069201;28;20431;-78
2021/05/05 00:41:32;;;;;;;4.82;1.10;;;;;;;-141.50;100.00;63355.56;5055928;28;20044;-77
2021/05/05 00:43:58;;;;;;;11.57;1.73;;;;;;;-141.50;100.00;63355.56;5054873;28;20055;-77
2021/05/05 00:46:29;;;;;;;4.80;1.13;;;;;;;-141.50;100.00;63355.56;5075686;28;20048;-76
2021/05/05 00:48:56;;;;;;;5.38;1.27;;;;;;;-141.50;100.00;63355.56;5057161;28;20503;-78
2021/05/05 00:51:22;;;;;;;10.05;1.30;;;;;;;-141.50;100.00;63355.56;5076057;28;20067;-78
2021/05/05 00:53:48;;;;;;;5.10;1.35;;;;;;;-141.50;100.00;63355.56;5075471;28;20036;-78
2021/05/05 00:56:15;;;;;;;5.63;1.40;;;;;;;-141.50;100.00;63355.56;5077099;28;20055;-77
2021/05/05 00:58:41;;;;;;;6.28;1.35;;;;;;;-141.50;100.00;63355.56;5059515;28;20052;-78
2021/05/05 01:01:07;;;;;;;3.05;1.05;;;;;;;-141.50;100.00;63355.56;5076422;28;20048;-78
2021/05/05 01:03:33;;;;;;;5.65;1.10;;;;;;;-141.50;100.00;63355.56;5077078;28;20048;-76
2021/05/05 01:06:02;;;;;;;6.22;1.35;;;;;;;-141.50;100.00;63355.56;5076084;28;20059;-77
2021/05/05 01:08:29;;;;;;;3.10;0.95;;;;;;;-141.50;100.00;63355.56;5074527;28;20037;-75
2021/05/05 01:10:55;;;;;;;5.55;1.33;;;;;;;-141.50;100.00;63355.56;5076295;28;20434;-76
2021/05/05 01:13:21;;;;;;;4.78;1.30;;;;;;;-141.50;100.00;63355.56;5077196;28;20045;-77
2021/05/05 01:15:47;;;;;;;4.97;1.20;;;;;;;-141.50;100.00;63355.56;5060025;28;20048;-76
2021/05/05 01:18:13;;;;;;;6.43;1.30;;;;;;;-141.50;100.00;63355.56;5075717;28;20040;-78
2021/05/05 01:20:40;;;;;;;7.53;1.35;;;;;;;-141.50;100.00;63355.56;5075533;28;20049;-75
2021/05/05 01:23:06;;;;;;;7.95;1.20;;;;;;;-141.50;100.00;63355.56;5076233;28;20506;-76
2021/05/05 01:25:32;;;;;;;6.53;1.40;;;;;;;-141.50;100.00;63355.56;5058533;28;20051;-77
2021/05/05 01:27:59;;;;;;;8.70;1.50;;;;;;;-141.50;100.00;63355.56;5075905;28;20098;-77
2021/05/05 01:30:25;;;;;;;5.80;1.33;;;;;;;-141.50;100.00;63355.56;5059213;28;20055;-77
2021/05/05 01:32:52;;;;;;;10.45;1.95;;;;;;;-141.50;100.00;63355.56;5058277;28;20040;-76
2021/05/05 01:35:20;;;;;;;7.30;1.25;;;;;;;-141.50;100.00;63355.56;5077302;28;20033;-76
2021/05/05 01:37:48;;;;;;;6.45;1.70;;;;;;;-141.50;100.00;63355.56;5059699;28;20048;-76
2021/05/05 01:40:29;;;;;;;7.65;1.52;;;;;;;-141.50;100.00;63355.56;5059565;28;20657;-76
2021/05/05 01:42:56;;;;;;;5.40;1.25;;;;;;;-141.50;100.00;63355.56;5080774;28;20048;-77
2021/05/05 01:45:22;;;;;;;6.90;1.40;;;;;;;-141.50;100.00;63355.56;5086263;28;20136;-77
2021/05/05 01:47:54;;;;;;;4.07;1.60;;;;;;;-141.50;100.00;63355.56;5072852;28;20531;-78
2021/05/05 01:50:21;;;;;;;6.18;1.40;;;;;;;-141.50;100.00;63355.56;5074362;28;20040;-78
2021/05/05 01:52:47;;;;;;;8.60;1.30;;;;;;;-141.50;100.00;63355.56;5073615;28;20036;-79
2021/05/05 01:55:15;;;;;;;7.15;1.30;;;;;;;-141.50;100.00;63355.56;5073052;28;20064;-78
2021/05/05 01:57:43;;;;;;;7.15;1.38;;;;;;;-141.50;100.00;63355.56;5072413;28;20048;-77
2021/05/05 02:00:14;;;;;;;5.45;1.27;;;;;;;-141.50;100.00;63355.56;5054629;28;20114;-76
2021/05/05 02:02:41;;;;;;;8.45;1.60;;;;;;;-141.50;100.00;63355.56;5053940;28;20056;-77
2021/05/05 02:05:08;;;;;;;7.60;1.50;;;;;;;-141.50;100.00;63355.56;5072958;28;20037;-78
2021/05/05 02:07:37;;;;;;;6.13;1.25;;;;;;;-141.50;100.00;63355.56;5072779;28;20052;-76
2021/05/05 02:10:11;;;;;;;5.57;1.48;;;;;;;-141.50;100.00;63355.56;5073763;28;20489;-78
2021/05/05 02:12:37;;;;;;;5.25;1.52;;;;;;;-141.50;100.00;63355.56;5064247;28;20066;-76
2021/05/05 02:15:05;;;;;;;4.20;1.40;;;;;;;-141.50;100.00;63355.56;5054754;28;20380;-77
2021/05/05 02:17:32;;;;;;;8.35;1.58;;;;;;;-141.50;100.00;63355.56;5054867;28;20052;-77
2021/05/05 02:19:58;;;;;;;7.55;1.48;;;;;;;-141.50;100.00;63355.56;5054464;28;20549;-79
2021/05/05 02:22:24;;;;;;;4.50;1.30;;;;;;;-141.50;100.00;63355.56;5072337;28;20066;-79
2021/05/05 02:24:50;;;;;;;5.30;1.48;;;;;;;-141.50;100.00;63355.56;5054754;28;20044;-78
2021/05/05 02:27:16;;;;;;;7.82;1.40;;;;;;;-141.50;100.00;63355.56;5038824;28;20051;-78
2021/05/05 02:29:44;;;;;;;6.72;1.67;;;;;;;-141.50;100.00;63355.56;5076944;28;20183;-79
2021/05/05 02:32:14;;;;;;;4.85;1.35;;;;;;;-141.50;100.00;63355.56;5057653;28;20040;-79
2021/05/05 02:34:40;;;;;;;8.05;1.65;;;;;;;-141.50;100.00;63355.56;5054200;28;20041;-79
2021/05/05 02:37:09;;;;;;;6.32;1.33;;;;;;;-141.50;100.00;63355.56;5054460;28;20044;-78
2021/05/05 02:39:38;;;;;;;10.18;1.65;;;;;;;-141.50;100.00;63355.56;5069485;28;20044;-78
2021/05/05 02:42:06;;;;;;;5.90;1.30;;;;;;;-141.50;100.00;63355.56;5069842;28;20040;-78
2021/05/05 02:44:32;;;;;;;6.03;1.20;;;;;;;-141.50;100.00;63355.56;5069690;28;20036;-77
2021/05/05 02:46:59;;;;;;;8.18;1.27;;;;;;;-141.50;100.00;63355.56;5069622;28;20131;-78
2021/05/05 02:49:25;;;;;;;8.40;1.40;;;;;;;-141.50;100.00;63355.56;5037240;28;20462;-77
2021/05/05 02:51:51;;;;;;;5.63;1.30;;;;;;;-141.50;100.00;63355.56;5071513;28;20499;-77
2021/05/05 02:54:17;;;;;;;8.20;1.30;;;;;;;-141.50;100.00;63355.56;5052457;28;20063;-77
2021/05/05 02:56:43;;;;;;;4.07;1.30;;;;;;;-141.50;100.00;63355.56;5052488;28;20139;-77
2021/05/05 02:59:09;;;;;;;7.03;1.52;;;;;;;-141.50;100.00;63355.56;5070874;28;20520;-76
2021/05/05 03:01:35;;;;;;;8.20;1.70;;;;;;;-141.50;100.00;63355.56;5070611;28;20095;-78
2021/05/05 03:04:02;;;;;;;6.28;1.48;;;;;;;-141.50;100.00;63355.56;5083996;28;20016;-77
2021/05/05 03:06:30;;;;;;;6.80;1.70;;;;;;;-141.50;100.00;63355.56;5037782;28;20052;-77
2021/05/05 03:08:58;;;;;;;6.78;1.67;;;;;;;-141.50;100.00;63355.56;5052505;28;20053;-78
2021/05/05 03:11:24;;;;;;;10.15;1.95;;;;;;;-141.50;100.00;63355.56;5070526;28;20044;-77
2021/05/05 03:13:50;;;;;;;8.80;1.90;;;;;;;-141.50;100.00;63355.56;5054485;28;20032;-77
2021/05/05 03:16:16;;;;;;;7.88;1.50;;;;;;;-141.50;100.00;63355.56;5070500;28;20054;-78
2021/05/05 03:18:45;;;;;;;6.82;1.67;;;;;;;-141.50;100.00;63355.56;5071396;28;20040;-78
2021/05/05 03:21:12;;;;;;;7.90;1.77;;;;;;;-141.50;100.00;63355.56;5069817;28;20454;-77
2021/05/05 03:23:38;;;;;;;7.28;1.92;;;;;;;-141.50;100.00;63355.56;5055228;28;20612;-78
2021/05/05 03:26:04;;;;;;;6.45;1.50;;;;;;;-141.50;100.00;63355.56;5050395;28;20204;-78
2021/05/05 03:28:30;;;;;;;7.63;1.60;;;;;;;-141.50;100.00;63355.56;5032030;28;20411;-77
2021/05/05 03:30:59;;;;;;;9.52;1.60;;;;;;;-141.50;100.00;63355.56;5035105;28;20128;-78
2021/05/05 03:33:25;;;;;;;5.75;1.92;;;;;;;-141.50;100.00;63355.56;5051733;28;20291;-77
2021/05/05 03:35:51;;;;;;;5.82;1.60;;;;;;;-141.50;100.00;63355.56;5019062;28;20413;-79
2021/05/05 03:38:17;;;;;;;8.25;1.88;;;;;;;-141.50;100.00;63355.56;5052734;28;20052;-77
2021/05/05 03:40:43;;;;;;;8.02;1.88;;;;;;;-141.50;100.00;63355.56;5051229;28;20433;-78
2021/05/05 03:43:09;;;;;;;6.80;1.70;;;;;;;-141.50;100.00;63355.56;5018402;28;20077;-78
2021/05/05 03:45:36;;;;;;;9.68;1.65;;;;;;;-141.50;100.00;63355.56;5050759;28;20045;-77
2021/05/05 03:48:03;;;;;;;6.07;1.70;;;;;;;-141.50;100.00;63355.56;5033398;28;20493;-78
2021/05/05 03:50:32;;;;;;;7.30;2.03;;;;;;;-141.50;100.00;63355.56;5051100;28;20558;-77
2021/05/05 03:52:58;;;;;;;11.00;2.05;;;;;;;-141.50;100.00;63355.56;5051571;28;20109;-78
2021/05/05 03:55:25;;;;;;;11.25;1.95;;;;;;;-141.50;100.00;63355.56;5049628;28;20065;-76
2021/05/05 03:57:52;;;;;;;5.85;1.75;;;;;;;-141.50;100.00;63355.56;5049886;28;20048;-78
2021/05/05 04:00:18;;;;;;;4.75;1.50;;;;;;;-141.50;100.00;63355.56;5031644;28;20045;-76
2021/05/05 04:02:47;;;;;;;6.53;1.67;;;;;;;-141.50;100.00;63355.56;5049707;28;20124;-77
2021/05/05 04:05:14;;;;;;;8.40;1.70;;;;;;;-141.50;100.00;63355.56;5032106;28;20045;-77
2021/05/05 04:07:41;;;;;;;9.60;2.03;;;;;;;-141.50;100.00;63355.56;5048611;28;20076;-76
2021/05/05 04:10:08;;;;;;;5.78;1.85;;;;;;;-141.50;100.00;63355.56;5048357;28;20102;-77
2021/05/05 04:12:44;;;;;;;6.75;2.30;;;;;;;-141.50;100.00;63355.56;5047888;28;20350;-77
2021/05/05 04:15:29;;;;;;;10.27;1.52;;;;;;;-141.50;100.00;63355.56;5051220;28;20503;-76
2021/05/05 04:18:13;;;;;;;6.13;1.60;;;;;;;-141.50;100.00;63355.56;5078325;23;20045;-78
2021/05/05 04:21:02;;;;;;;8.68;1.90;;;;;;;-141.50;100.00;63355.56;5105287;28;20044;-81
2021/05/05 04:23:46;;;;;;;13.52;1.80;;;;;;;-141.50;100.00;63355.56;5100009;28;20036;-79
2021/05/05 04:26:16;;;;;;;7.55;1.75;;;;;;;-141.50;100.00;63355.56;5098948;28;20047;-80
2021/05/05 04:28:43;;;;;;;6.85;1.70;;;;;;;-141.50;100.00;63355.56;5106399;28;20044;-78
2021/05/05 04:31:09;;;;;;;9.65;2.28;;;;;;;-141.50;100.00;63355.56;5119745;28;20038;-78
2021/05/05 04:33:35;;;;;;;6.50;1.83;;;;;;;-141.50;100.00;63355.56;5121404;28;20040;-78
2021/05/05 04:36:01;;;;;;;11.52;1.95;;;;;;;-141.50;100.00;63355.56;5129366;28;20054;-77
2021/05/05 04:38:27;;;;;;;11.93;1.70;;;;;;;-141.50;100.00;63355.56;5112011;28;20489;-79
2021/05/05 04:40:53;;;;;;;4.38;1.48;;;;;;;-141.50;100.00;63355.56;5110429;28;20070;-79
2021/05/05 04:43:22;;;;;;;8.25;2.00;;;;;;;-141.50;100.00;63355.56;5128120;28;20051;-78
2021/05/05 04:45:48;;;;;;;12.40;1.80;;;;;;;-141.50;100.00;63355.56;5128815;28;20043;-77
2021/05/05 04:48:15;;;;;;;8.48;2.00;;;;;;;-141.50;100.00;63355.56;5110245;28;20126;-77
2021/05/05 04:50:41;;;;;;;6.97;1.70;;;;;;;-141.50;100.00;63355.56;5109034;28;20050;-77
2021/05/05 04:53:08;;;;;;;6.35;1.98;;;;;;;-141.50;100.00;63355.56;5127036;28;20048;-79
2021/05/05 04:55:34;;;;;;;10.13;1.85;;;;;;;-141.50;100.00;63355.56;5100336;28;20044;-78
2021/05/05 04:58:01;;;;;;;8.95;1.90;;;;;;;-141.50;100.00;63355.56;5120465;28;20100;-78
2021/05/05 05:00:27;;;;;;;5.68;1.77;;;;;;;-141.50;100.00;63355.56;5083355;28;20055;-76
2021/05/05 05:02:53;;;;;;;6.20;1.55;;;;;;;-141.50;100.00;63355.56;5098007;28;20066;-80
2021/05/05 05:05:22;;;;;;;6.55;1.80;;;;;;;-141.50;100.00;63355.56;5099153;28;20485;-79
2021/05/05 05:07:49;;;;;;;4.00;1.40;;;;;;;-141.50;100.00;63355.56;5113090;28;20065;-78
2021/05/05 05:10:15;;;;;;;6.30;1.75;;;;;;;-141.50;100.00;63355.56;5100349;28;20055;-79
2021/05/05 05:12:41;;;;;;;5.93;1.50;;;;;;;-141.50;100.00;63355.56;5106712;28;20043;-79
2021/05/05 05:15:08;;;;;;;5.80;1.67;;;;;;;-141.50;100.00;63355.56;5106701;28;20052;-78
2021/05/05 05:17:34;;;;;;;8.27;1.65;;;;;;;-141.50;100.00;63355.56;5091256;28;20055;-79
2021/05/05 05:20:00;;;;;;;5.13;1.92;;;;;;;-141.50;100.00;63355.56;5092752;28;20122;-77
2021/05/05 05:22:26;;;;;;;6.63;1.90;;;;;;;-141.50;100.00;63355.56;5110623;28;20048;-78
2021/05/05 05:24:53;;;;;;;10.02;1.92;;;;;;;-141.50;100.00;63355.56;5110882;28;20449;-80
2021/05/05 05:27:19;;;;;;;4.25;1.55;;;;;;;-141.50;100.00;63355.56;5084001;28;20299;-80
2021/05/05 05:29:45;;;;;;;5.97;1.80;;;;;;;-141.50;100.00;63355.56;5089984;28;20048;-77
2021/05/05 05:32:11;;;;;;;7.88;1.92;;;;;;;-141.50;100.00;63355.56;5111997;28;20438;-80
2021/05/05 05:34:38;;;;;;;6.43;1.80;;;;;;;-141.50;100.00;63355.56;5110451;28;20043;-80
2021/05/05 05:37:05;;;;;;;7.72;1.60;;;;;;;-141.50;100.00;63355.56;5092463;28;20390;-79
2021/05/05 05:39:31;;;;;;;7.22;1.88;;;;;;;-141.50;100.00;63355.56;5110221;28;20394;-80
2021/05/05 05:41:57;;;;;;;6.82;1.30;;;;;;;-141.50;100.00;63355.56;5091284;28;20040;-79
2021/05/05 05:44:24;;;;;;;9.73;1.60;;;;;;;-141.50;100.00;63355.56;5088470;28;20404;-80
2021/05/05 05:46:50;;;;;;;6.45;1.55;;;;;;;-141.50;100.00;63355.56;5088245;28;20128;-76
2021/05/05 05:49:16;;;;;;;11.00;1.83;;;;;;;-141.50;100.00;63355.56;5089221;28;20102;-80
2021/05/05 05:51:42;;;;;;;7.00;1.90;;;;;;;-141.50;100.00;63355.56;5088898;28;20055;-79
2021/05/05 05:54:08;;;;;;;5.72;1.58;;;;;;;-141.50;100.00;63355.56;5088869;28;20063;-77
2021/05/05 05:56:34;;;;;;;7.97;1.70;;;;;;;-141.50;100.00;63355.56;5088506;28;20125;-80
2021/05/05 05:59:00;;;;;;;8.15;1.65;;;;;;;-141.50;100.00;63355.56;5088307;28;20048;-80
2021/05/05 06:01:27;;;;;;;4.80;1.48;;;;;;;-141.50;100.00;63355.56;5101046;28;20073;-78
2021/05/05 06:03:53;;;;;;;5.70;1.60;;;;;;;-141.50;100.00;63355.56;5091180;28;20044;-78
2021/05/05 06:06:19;;;;;;;5.95;1.45;;;;;;;-141.50;100.00;63355.56;5095019;28;20043;-78
2021/05/05 06:08:45;;;;;;;8.32;1.73;;;;;;;-141.50;100.00;63355.56;5111445;28;20073;-77
2021/05/05 06:11:11;;;;;;;4.47;1.50;;;;;;;-141.50;100.00;63355.56;5116214;28;20051;-78
2021/05/05 06:13:37;;;;;;;10.02;1.95;;;;;;;-141.50;100.00;63355.56;5062163;28;20156;-77
2021/05/05 06:16:03;;;;;;;5.40;1.70;;;;;;;-141.50;100.00;63355.56;5100241;28;20482;-78
2021/05/05 06:18:30;;;;;;;7.22;1.67;;;;;;;-141.50;100.00;63355.56;5112711;28;20487;-80
2021/05/05 06:20:56;;;;;;;7.65;1.33;;;;;;;-141.50;100.00;63355.56;5113282;28;20043;-79
2021/05/05 06:23:22;;;;;;;7.88;1.98;;;;;;;-141.50;100.00;63355.56;5112444;28;20096;-77
2021/05/05 06:25:48;;;;;;;8.27;2.03;;;;;;;-141.50;100.00;63355.56;5094067;28;20123;-79
2021/05/05 06:28:14;;;;;;;14.15;1.80;;;;;;;-141.50;100.00;63355.56;5094692;28;20047;-81
2021/05/05 06:30:40;;;;;;;8.77;1.70;;;;;;;-141.50;100.00;63355.56;5112709;28;20040;-79
2021/05/05 06:33:06;;;;;;;4.40;1.30;;;;;;;-141.50;100.00;63355.56;5095114;28;20043;-78
2021/05/05 06:35:32;;;;;;;5.20;1.17;;;;;;;-141.50;100.00;63355.56;5115365;28;20032;-77
2021/05/05 06:37:59;;;;;;;10.00;1.88;;;;;;;-141.50;100.00;63355.56;5093959;28;20521;-79
2021/05/05 06:40:25;;;;;;;8.68;1.40;;;;;;;-141.50;100.00;63355.56;5096797;28;20573;-77
2021/05/05 06:42:51;;;;;;;5.10;1.50;;;;;;;-141.50;100.00;63355.56;5094437;28;20153;-76
2021/05/05 06:45:17;;;;;;;4.00;1.50;;;;;;;-141.50;100.00;63355.56;5111557;28;20119;-78
2021/05/05 06:47:43;;;;;;;5.85;1.45;;;;;;;-141.50;100.00;63355.56;5106115;28;20047;-80
2021/05/05 06:50:11;;;;;;;7.30;1.40;;;;;;;-141.50;100.00;63355.56;5110889;28;20046;-82
2021/05/05 06:52:37;;;;;;;4.57;1.40;;;;;;;-141.50;100.00;63355.56;5100490;28;20044;-80
2021/05/05 06:55:04;;;;;;;2.60;0.90;;;;;;;-141.50;100.00;63355.56;5100272;28;20445;-79
2021/05/05 06:57:30;;;;;;;5.07;1.30;;;;;;;-141.50;100.00;63355.56;5073184;28;20068;-77
2021/05/05 06:59:56;;;;;;;10.57;2.13;;;;;;;-141.50;100.00;63355.56;5095901;28;20059;-77
2021/05/05 07:02:22;;;;;;;4.07;0.98;;;;;;;-141.50;100.00;63355.56;5084487;28;20051;-79
2021/05/05 07:04:49;;;;;;;5.50;1.35;;;;;;;-141.50;100.00;63355.56;5100058;28;20047;-78
2021/05/05 07:07:15;;;;;;;6.55;1.58;;;;;;;-141.50;100.00;63355.56;5091982;28;20040;-77
2021/05/05 07:09:41;;;;;;;5.88;1.33;;;;;;;-141.50;100.00;63355.56;5102011;28;20040;-79
2021/05/05 07:12:08;;;;;;;4.90;1.50;;;;;;;-141.50;100.00;63355.56;5110600;28;20054;-74
2021/05/05 07:14:34;;;;;;;6.07;1.25;;;;;;;-141.50;100.00;63355.56;5097150;28;20639;-80
2021/05/05 07:17:00;;;;;;;8.32;1.27;;;;;;;-141.50;100.00;63355.56;5115450;28;20040;-80
2021/05/05 07:19:26;;;;;;;3.47;1.13;;;;;;;-141.50;100.00;63355.56;5094228;28;20040;-82
2021/05/05 07:21:52;;;;;;;4.70;1.00;;;;;;;-141.50;100.00;63355.56;5094389;28;20118;-79
2021/05/05 07:24:18;;;;;;;5.75;1.13;;;;;;;-141.50;100.00;63355.56;5112889;28;20080;-80
2021/05/05 07:26:44;;;;;;;3.85;0.95;;;;;;;-141.50;100.00;63355.56;5112806;28;20051;-80
2021/05/05 07:29:11;;;;;;;5.20;1.60;;;;;;;-141.50;100.00;63355.56;5110689;28;20036;-80
2021/05/05 07:31:37;;;;;;;6.88;1.30;;;;;;;-141.50;100.00;63355.56;5112195;28;20070;-82
2021/05/05 07:34:03;;;;;;;4.57;1.02;;;;;;;-141.50;100.00;63355.56;5094274;28;20374;-81
2021/05/05 07:36:30;;;;;;;8.55;1.23;;;;;;;-141.50;100.00;63355.56;5093186;28;20635;-79
2021/05/05 07:46:47;;;;;;;5.35;1.60;;;;;;;-141.50;100.00;63355.56;5111293;28;20059;-80
2021/05/05 07:49:18;;;;;;;7.40;1.63;;;;;;;-141.50;100.00;63355.56;5112345;28;20051;-80
2021/05/05 07:51:45;;;;;;;5.65;1.40;;;;;;;-141.50;100.00;63355.56;5082405;28;20036;-78
2021/05/05 07:54:12;;;;;;;8.43;1.38;;;;;;;-141.50;100.00;63355.56;5099674;28;20200;-83
2021/05/05 07:56:37;;;;;;;7.25;1.67;;;;;;;-141.50;100.00;63355.56;5098778;28;20039;-80
2021/05/05 07:59:04;;;;;;;5.25;1.35;;;;;;;-141.50;100.00;63355.56;5124335;28;20526;-82
2021/05/05 08:01:34;;;;;;;6.15;1.48;;;;;;;-141.50;100.00;63355.56;5118144;28;20050;-81
2021/05/05 08:04:01;;;;;;;7.88;1.52;;;;;;;-141.50;100.00;63355.56;5116105;28;20040;-80
2021/05/05 08:06:28;;;;;;;4.43;1.00;;;;;;;-141.50;100.00;63355.56;5117282;28;20040;-79
2021/05/05 08:08:56;;;;;;;9.48;1.67;;;;;;;-141.50;100.00;63355.56;5097187;28;20051;-83
2021/05/05 08:11:24;;;;;;;4.55;1.15;;;;;;;-141.50;100.00;63355.56;5080884;28;20065;-78
2021/05/05 08:13:51;;;;;;;6.90;1.30;;;;;;;-141.50;100.00;63355.56;5116332;28;20043;-81
2021/05/05 08:16:18;;;;;;;4.85;1.17;;;;;;;-141.50;100.00;63355.56;5101762;28;20577;-82
2021/05/05 08:18:45;;;;;;;4.18;1.30;;;;;;;-141.50;100.00;63355.56;5103723;28;20052;-76
2021/05/05 08:21:11;;;;;;;11.10;1.30;;;;;;;-141.50;100.00;63355.56;5079161;28;20052;-77
2021/05/05 08:23:41;;;;;;;8.55;1.70;;;;;;;-141.50;100.00;63355.56;5095853;28;20062;-79
2021/05/05 08:26:10;;;;;;;5.18;1.30;;;;;;;-141.50;100.00;63355.56;5097532;28;20044;-77
2021/05/05 08:28:36;;;;;;;4.55;1.30;;;;;;;-141.50;100.00;63355.56;5092352;28;20051;-79
2021/05/05 08:31:04;;;;;;;6.50;1.20;;;;;;;-141.50;100.00;63355.56;5119577;28;20051;-80
2021/05/05 08:33:31;;;;;;;8.13;1.60;;;;;;;-141.50;100.00;63355.56;5116587;28;20063;-79
2021/05/05 08:35:57;;;;;;;8.40;1.50;;;;;;;-141.50;100.00;63355.56;5117905;28;20060;-78
2021/05/05 08:38:23;;;;;;;6.25;1.50;;;;;;;-141.50;100.00;63355.56;5115347;28;20071;-78
2021/05/05 08:40:49;;;;;;;7.95;1.58;;;;;;;-141.50;100.00;63355.56;5116547;28;20050;-79
2021/05/05 08:43:16;;;;;;;5.45;1.35;;;;;;;-141.50;100.00;63355.56;5116410;28;20054;-80
2021/05/05 08:45:43;;;;;;;6.53;1.23;;;;;;;-141.50;100.00;63355.56;5096897;28;20411;-79
2021/05/05 08:48:11;;;;;;;7.97;1.52;;;;;;;-141.50;100.00;63355.56;5088121;28;20036;-82
2021/05/05 08:50:41;;;;;;;3.58;0.98;;;;;;;-141.50;100.00;63355.56;5103726;28;20040;-79
2021/05/05 08:53:07;;;;;;;4.65;1.20;;;;;;;-141.50;100.00;63355.56;5100378;28;20036;-77
2021/05/05 08:55:35;;;;;;;6.60;1.20;;;;;;;-141.50;100.00;63355.56;5095817;28;20047;-81
2021/05/05 08:58:05;;;;;;;7.38;1.40;;;;;;;-141.50;100.00;63355.56;5077468;28;20391;-78
2021/05/05 09:00:36;;;;;;;6.30;1.75;;;;;;;-141.50;100.00;63355.56;5098028;28;20109;-78
2021/05/05 09:03:07;;;;;;;9.65;1.45;;;;;;;-141.50;100.00;63355.56;5081599;28;20054;-81
2021/05/05 09:06:01;;;;;;;6.20;1.25;;;;;;;-141.50;100.00;63355.56;5077280;28;20404;-79
2021/05/05 09:08:31;;;;;;;4.55;1.35;;;;;;;-141.50;100.00;63355.56;5106589;28;20102;-79
2021/05/05 09:11:00;;;;;;;10.82;1.30;;;;;;;-141.50;100.00;63355.56;5110764;28;20048;-79
2021/05/05 09:13:50;;;;;;;3.17;1.23;;;;;;;-141.50;100.00;63355.56;5094876;28;20044;-79
2021/05/05 09:16:23;;;;;;;8.45;1.80;;;;;;;-141.50;100.00;63355.56;5093745;28;20041;-81
2021/05/05 09:18:58;;;;;;;4.05;1.40;;;;;;;-141.50;100.00;63355.56;5097155;28;20231;-79
2021/05/05 09:21:24;;;;;;;4.65;1.50;;;;;;;-141.50;100.00;63355.56;5099095;28;20040;-79
2021/05/05 09:23:51;;;;;;;7.15;1.40;;;;;;;-141.50;100.00;63355.56;5087604;28;20040;-82
2021/05/05 09:26:34;;;;;;;9.55;1.70;;;;;;;-141.50;100.00;63355.56;5094993;28;20089;-81
2021/05/05 09:29:01;;;;;;;7.30;1.88;;;;;;;-141.50;100.00;63355.56;5094957;28;20085;-80
2021/05/05 09:31:35;;;;;;;4.25;1.17;;;;;;;-141.50;100.00;63355.56;5095188;28;20117;-80
2021/05/05 09:34:03;;;;;;;6.90;1.55;;;;;;;-141.50;100.00;63355.56;5092336;28;20142;-77
2021/05/05 09:36:30;;;;;;;6.75;1.50;;;;;;;-141.50;100.00;63355.56;5094647;28;20081;-81
2021/05/05 09:38:56;;;;;;;9.55;1.25;;;;;;;-141.50;100.00;63355.56;5091958;28;20044;-78
2021/05/05 09:41:24;;;;;;;4.70;1.23;;;;;;;-141.50;100.00;63355.56;5090652;28;20052;-77
2021/05/05 09:43:52;;;;;;;5.18;1.55;;;;;;;-141.50;100.00;63355.56;5090814;28;20109;-79
2021/05/05 09:46:47;;;;;;;3.53;1.20;;;;;;;-141.50;100.00;63355.56;5093398;28;20048;-79
2021/05/05 09:49:32;;;;;;;7.65;1.17;;;;;;;-141.50;100.00;63355.56;5092435;28;20082;-77
2021/05/05 09:52:00;;;;;;;4.63;1.10;;;;;;;-141.50;100.00;63355.56;5099435;28;20050;-78
2021/05/05 09:54:49;;;;;;;5.22;1.17;;;;;;;-141.50;100.00;63355.56;5078561;28;20051;-80
2021/05/05 09:57:22;;;;;;;4.68;1.30;;;;;;;-141.50;100.00;63355.56;5085618;28;20483;-82
2021/05/05 10:00:01;;;;;;;3.67;1.20;;;;;;;-141.50;100.00;63355.56;5096799;28;20052;-78
2021/05/05 10:02:30;;;;;;;4.47;1.15;;;;;;;-141.50;100.00;63355.56;5096049;28;20051;-81
2021/05/05 10:05:08;;;;;;;5.85;1.30;;;;;;;-141.50;100.00;63355.56;5093498;28;20040;-80
2021/05/05 10:07:48;;;;;;;5.30;1.45;;;;;;;-141.50;100.00;63355.56;5092313;28;20411;-80
2021/05/05 10:10:14;;;;;;;4.53;1.17;;;;;;;-141.50;100.00;63355.56;5092769;28;20044;-78
2021/05/05 10:12:41;;;;;;;3.90;1.33;;;;;;;-141.50;100.00;63355.56;5110916;28;20125;-79
2021/05/05 10:15:09;;;;;;;4.97;1.10;;;;;;;-141.50;100.00;63355.56;5114511;28;20036;-79
2021/05/05 10:17:36;;;;;;;4.70;1.17;;;;;;;-141.50;100.00;63355.56;5096095;28;20086;-78
2021/05/05 10:20:13;;;;;;;3.50;0.93;;;;;;;-141.50;100.00;63355.56;5083944;22;20045;-83
2021/05/05 10:22:44;;;;;;;4.93;1.52;;;;;;;-141.50;100.00;63355.56;5037400;28;20106;-79
2021/05/05 10:25:15;;;;;;;4.00;1.30;;;;;;;-141.50;100.00;63355.56;5053229;28;20045;-82
2021/05/05 10:27:42;;;;;;;4.50;1.10;;;;;;;-141.50;100.00;63355.56;5039712;28;20508;-80
2021/05/05 10:30:11;;;;;;;6.10;1.10;;;;;;;-141.50;100.00;63355.56;5047040;28;20202;-84
2021/05/05 10:32:41;;;;;;;7.35;1.48;;;;;;;-141.50;100.00;63355.56;5027051;28;20040;-81
2021/05/05 10:35:08;;;;;;;5.95;1.00;;;;;;;-141.50;100.00;63355.56;5057109;28;20113;-85
2021/05/05 10:37:57;;;;;;;5.70;1.27;;;;;;;-141.50;100.00;63355.56;5076826;28;20036;-80
2021/05/05 10:40:25;;;;;;;5.57;1.30;;;;;;;-141.50;100.00;63355.56;5078808;28;20055;-84
2021/05/05 10:42:57;;;;;;;5.72;1.58;;;;;;;-141.50;100.00;63355.56;5054953;28;20056;-81
2021/05/05 10:45:34;;;;;;;5.05;1.10;;;;;;;-141.50;100.00;63355.56;5081835;28;20089;-86
2021/05/05 10:48:10;;;;;;;4.63;1.23;;;;;;;-141.50;100.00;63355.56;5055979;28;20341;-79
2021/05/05 10:50:52;;;;;;;6.22;1.20;;;;;;;-141.50;100.00;63355.56;5070120;28;20051;-81
2021/05/05 10:53:33;;;;;;;4.82;1.08;;;;;;;-141.50;100.00;63355.56;5079735;28;20045;-80
2021/05/05 10:56:00;;;;;;;7.13;1.20;;;;;;;-141.50;100.00;63355.56;5049330;28;20142;-80
2021/05/05 10:58:31;;;;;;;5.18;1.05;;;;;;;-141.50;100.00;63355.56;5076137;28;20052;-88
2021/05/05 11:01:06;;;;;;;4.63;1.13;;;;;;;-141.50;100.00;63355.56;5059787;28;20048;-81
2021/05/05 11:03:47;;;;;;;4.38;1.30;;;;;;;-141.50;100.00;63355.56;5061807;28;20495;-80
2021/05/05 11:06:36;;;;;;;2.65;1.13;;;;;;;-141.50;100.00;63355.56;5096847;28;20039;-80
2021/05/05 11:09:11;;;;;;;2.38;0.90;;;;;;;-141.50;100.00;63355.56;5074057;28;20067;-81
2021/05/05 11:11:52;;;;;;;4.10;1.25;;;;;;;-141.50;100.00;63355.56;5076483;28;20044;-80
2021/05/05 11:14:24;;;;;;;5.32;1.38;;;;;;;-141.50;100.00;63355.56;5099998;28;20044;-82
2021/05/05 11:17:00;;;;;;;3.92;1.20;;;;;;;-141.50;100.00;63355.56;5099438;28;20044;-79
2021/05/05 11:19:40;;;;;;;8.90;1.50;;;;;;;-141.50;100.00;63355.56;5101102;28;20596;-80
2021/05/05 11:22:19;;;;;;;5.90;1.50;;;;;;;-141.50;100.00;63355.56;5104396;28;20062;-80
2021/05/05 11:24:52;;;;;;;3.80;1.25;;;;;;;-141.50;100.00;63355.56;5062141;28;20482;-80